createdAt,value
2022-08-07T18:25:40.372Z,32.17
2022-08-07T18:28:35.398Z,32.86
2022-08-07T18:31:03.843Z,33.08
2022-08-07T18:33:54.958Z,33.18
2022-08-07T18:36:41.182Z,33.35
2022-08-07T18:40:09.006Z,32.90
2022-08-07T18:42:20.470Z,32.91
2022-08-07T18:45:43.006Z,33.19
2022-08-07T18:47:45.109Z,33.01
2022-08-07T18:50:39.042Z,32.84
2022-08-07T18:53:39.552Z,33.06
2022-08-07T18:56:12.605Z,32.53
2022-08-07T18:58:51.108Z,32.92
2022-08-07T19:02:17.099Z,33.10
2022-08-07T19:04:19.679Z,32.61
2022-08-07T19:07:04.068Z,32.56
2022-08-07T19:09:56.659Z,32.58
2022-08-07T19:12:30.228Z,32.38
2022-08-07T19:16:03.004Z,32.05
2022-08-07T19:18:13.790Z,31.98
2022-08-07T19:21:08.947Z,31.78
2022-08-07T19:23:58.061Z,31.57
2022-08-07T19:26:29.689Z,31.34
2022-08-07T19:30:56.318Z,29.74
2022-08-07T19:32:07.745Z,28.60
2022-08-07T19:34:41.232Z,28.24
2022-08-07T19:37:17.421Z,27.98
2022-08-07T19:39:56.976Z,27.79
2022-08-07T19:42:32.121Z,27.59
2022-08-07T19:45:09.773Z,27.77
2022-08-07T19:47:38.106Z,27.79
2022-08-07T19:50:44.136Z,27.61
2022-08-07T19:52:58.522Z,27.50
2022-08-07T19:55:56.752Z,27.50
2022-08-07T19:58:15.594Z,27.59
2022-08-07T20:00:55.407Z,27.35
2022-08-07T20:03:34.135Z,27.27
2022-08-07T20:06:04.441Z,27.01
2022-08-07T20:08:36.113Z,26.93
2022-08-07T20:11:10.063Z,27.14
2022-08-07T20:13:42.323Z,27.16
2022-08-07T20:16:15.840Z,27.01
2022-08-07T20:18:58.417Z,27.10
2022-08-07T20:21:29.154Z,26.95
2022-08-07T20:24:18.338Z,26.99
2022-08-07T20:26:50.246Z,27.06
2022-08-07T20:29:49.432Z,26.67
2022-08-07T20:32:22.652Z,26.71
2022-08-07T20:34:53.719Z,26.72
2022-08-07T20:37:22.462Z,26.50
2022-08-07T20:40:02.920Z,26.24
2022-08-07T20:42:33.672Z,26.00
2022-08-07T20:45:01.999Z,26.02
2022-08-07T20:47:56.291Z,25.98
2022-08-07T20:50:21.145Z,25.99
2022-08-07T20:52:51.810Z,25.79
2022-08-07T20:55:23.911Z,25.71
2022-08-07T20:58:03.592Z,25.47
2022-08-07T21:00:42.742Z,25.85
2022-08-07T21:03:12.071Z,25.63
2022-08-07T21:05:52.670Z,25.55
2022-08-07T21:08:38.267Z,25.26
2022-08-07T21:11:10.756Z,25.58
2022-08-07T21:13:57.936Z,25.56
2022-08-07T21:16:30.740Z,25.40
2022-08-07T21:18:58.344Z,25.29
2022-08-07T21:21:27.711Z,25.03
2022-08-07T21:23:56.990Z,25.20
2022-08-07T21:26:26.234Z,25.09
2022-08-07T21:29:00.529Z,25.11
2022-08-07T21:32:42.826Z,25.22
2022-08-07T21:34:32.449Z,25.47
2022-08-07T21:37:00.135Z,25.16
2022-08-07T21:39:45.399Z,24.93
2022-08-07T21:46:05.273Z,24.75
2022-08-07T21:48:02.775Z,24.78
2022-08-07T21:50:32.753Z,24.69
2022-08-07T21:53:08.606Z,24.59
2022-08-07T21:55:48.347Z,24.73
2022-08-07T21:58:32.323Z,24.64
2022-08-07T22:01:01.202Z,24.68
2022-08-07T22:03:38.499Z,24.60
2022-08-07T22:06:30.532Z,24.53
2022-08-07T22:09:06.911Z,24.33
2022-08-07T22:12:05.275Z,24.30
2022-08-07T22:14:34.757Z,24.64
2022-08-07T22:17:04.234Z,24.36
2022-08-07T22:19:37.387Z,24.22
2022-08-07T22:22:20.904Z,24.09
2022-08-07T22:24:51.673Z,24.10
2022-08-07T22:27:21.153Z,24.01
2022-08-07T22:30:12.494Z,24.05
2022-08-07T22:32:45.074Z,23.96
2022-08-07T22:35:13.170Z,23.94
2022-08-07T22:38:02.803Z,23.86
2022-08-07T22:40:44.627Z,24.00
2022-08-07T22:43:31.609Z,23.87
2022-08-07T22:46:43.033Z,23.80
2022-08-07T22:49:26.340Z,23.67
2022-08-07T22:52:07.097Z,23.87
2022-08-07T22:54:40.843Z,23.55
2022-08-07T22:57:19.799Z,23.49
2022-08-07T23:00:03.106Z,23.43
2022-08-07T23:02:34.827Z,23.38
2022-08-07T23:06:07.613Z,23.50
2022-08-07T23:07:59.120Z,23.52
2022-08-07T23:10:45.535Z,23.76
2022-08-07T23:13:48.701Z,23.47
2022-08-07T23:16:39.230Z,23.27
2022-08-07T23:19:51.787Z,23.40
2022-08-07T23:22:23.062Z,23.25
2022-08-07T23:24:54.881Z,23.21
2022-08-07T23:27:34.525Z,23.06
2022-08-07T23:30:38.060Z,23.04
2022-08-07T23:34:36.660Z,23.00
2022-08-07T23:36:10.598Z,22.99
2022-08-07T23:38:54.528Z,22.96
2022-08-07T23:41:22.526Z,22.86
2022-08-07T23:44:00.683Z,22.85
2022-08-07T23:46:50.036Z,22.84
2022-08-07T23:49:49.975Z,22.85
2022-08-07T23:53:01.181Z,22.83
2022-08-07T23:55:53.498Z,22.77
2022-08-07T23:58:07.750Z,22.59
